Time;durP1;ratioP1;P1;durP2;ratioP2;P2;SDS_P1;SDS_P2;PMS_P1;PMS_P2;Temp;Humidity;BMP_temperature;BMP_pressure;BME280_temperature;BME280_humidity;BME280_pressure;Samples;Min_cycle;Max_cycle;Signal;HPM_P1;HPM_P2
2021/08/04 00:01:27;;;;;;;0.10;0.10;;;;;;;24.84;42.86;99645.03;4991758;28;20136;-58
2021/08/04 00:03:53;;;;;;;0.10;0.10;;;;;;;24.86;43.09;99643.03;4991913;28;20080;-57
2021/08/04 00:06:20;;;;;;;0.10;0.10;;;;;;;24.85;42.87;99640.53;4991616;28;20046;-57
2021/08/04 00:08:45;;;;;;;0.10;0.10;;;;;;;24.81;42.94;99640.00;4991813;28;20140;-56
2021/08/04 00:11:32;;;;;;;0.08;0.08;;;;;;;24.68;42.98;99622.94;4991602;28;20553;-57
2021/08/04 00:14:17;;;;;;;0.03;0.03;;;;;;;24.84;42.79;99655.72;4991478;28;20081;-56
2021/08/04 00:17:04;;;;;;;0.00;0.00;;;;;;;24.83;43.05;99653.25;4991598;28;20420;-57
2021/08/04 00:19:50;;;;;;;0.10;0.10;;;;;;;24.81;42.94;99652.53;4991638;28;20046;-57
2021/08/04 00:22:36;;;;;;;0.13;0.13;;;;;;;24.79;42.95;99652.72;4991292;28;20424;-58
2021/08/04 00:25:21;;;;;;;0.22;0.22;;;;;;;24.80;42.99;99649.03;4991396;28;20528;-56
2021/08/04 00:28:07;;;;;;;0.10;0.10;;;;;;;24.78;43.09;99651.06;4991541;28;20141;-57
2021/08/04 00:30:53;;;;;;;0.00;0.00;;;;;;;24.78;43.10;99655.56;4990393;28;20186;-57
2021/08/04 00:33:20;;;;;;;0.35;0.15;;;;;;;24.76;43.17;99661.09;4991011;28;20057;-56
2021/08/04 00:35:46;;;;;;;0.10;0.10;;;;;;;24.71;43.13;99649.28;4991634;28;20513;-57
2021/08/04 00:38:13;;;;;;;0.10;0.10;;;;;;;24.67;43.21;99651.47;4991189;28;20046;-58
2021/08/04 00:40:41;;;;;;;0.00;0.00;;;;;;;24.72;43.25;99656.28;4989647;28;20050;-57
2021/08/04 00:43:07;;;;;;;0.00;0.00;;;;;;;24.72;43.33;99658.97;4973787;28;20054;-57
2021/08/04 00:45:34;;;;;;;0.10;0.10;;;;;;;24.70;43.28;99653.81;4990939;28;20078;-58
2021/08/04 00:48:00;;;;;;;0.00;0.00;;;;;;;24.70;43.31;99658.31;4989735;28;20047;-56
2021/08/04 00:50:26;;;;;;;0.10;0.10;;;;;;;24.67;43.29;99648.00;4989744;28;20077;-57
2021/08/04 00:52:53;;;;;;;0.00;0.00;;;;;;;24.69;43.37;99656.66;4989707;28;20050;-58
2021/08/04 00:55:20;;;;;;;0.00;0.00;;;;;;;24.68;43.39;99660.31;4990677;28;20065;-57
2021/08/04 00:57:46;;;;;;;0.00;0.00;;;;;;;24.66;43.51;99657.00;4991060;28;20055;-57
2021/08/04 01:00:12;;;;;;;0.10;0.10;;;;;;;24.62;43.34;99656.53;4990785;28;20050;-57
2021/08/04 01:02:43;;;;;;;0.10;0.10;;;;;;;24.63;43.44;99658.22;4973342;28;20042;-56
2021/08/04 01:05:13;;;;;;;0.17;0.17;;;;;;;24.58;43.48;99654.41;4989717;28;20579;-58
2021/08/04 01:07:42;;;;;;;0.10;0.10;;;;;;;24.63;43.35;99668.88;4973301;28;20049;-58
2021/08/04 01:10:12;;;;;;;0.10;0.10;;;;;;;24.62;43.48;99667.22;4973494;28;20054;-58
2021/08/04 01:12:42;;;;;;;0.10;0.10;;;;;;;24.61;43.49;99668.22;4989056;28;20149;-58
2021/08/04 01:15:09;;;;;;;0.10;0.10;;;;;;;24.62;43.45;99667.22;4990788;28;20100;-58
2021/08/04 01:17:37;;;;;;;0.10;0.10;;;;;;;24.61;43.49;99676.22;4973239;28;20046;-58
2021/08/04 01:20:09;;;;;;;0.10;0.10;;;;;;;24.60;43.57;99669.25;4990448;28;20288;-59
2021/08/04 01:22:51;;;;;;;0.10;0.10;;;;;;;24.61;43.58;99676.22;4973031;28;20049;-58
2021/08/04 01:25:18;;;;;;;0.10;0.10;;;;;;;24.60;43.51;99679.94;4989340;28;20042;-58
2021/08/04 01:28:09;;;;;;;0.10;0.10;;;;;;;24.55;43.43;99674.28;4989925;28;20058;-59
2021/08/04 01:30:35;;;;;;;0.10;0.10;;;;;;;24.61;43.45;99692.25;4989078;28;20050;-56
2021/08/04 01:33:01;;;;;;;0.10;0.10;;;;;;;24.58;43.45;99681.94;4988972;28;20061;-57
2021/08/04 01:35:27;;;;;;;0.30;0.30;;;;;;;24.61;43.52;99683.41;4972868;28;20512;-57
2021/08/04 01:37:53;;;;;;;0.00;0.00;;;;;;;24.60;43.45;99693.28;4973036;28;20145;-57
2021/08/04 01:40:19;;;;;;;0.13;0.13;;;;;;;24.58;43.42;99687.25;4989107;28;20053;-58
2021/08/04 01:42:45;;;;;;;0.10;0.10;;;;;;;24.63;43.40;99700.94;4973034;28;20046;-58
2021/08/04 01:45:11;;;;;;;0.00;0.00;;;;;;;24.64;43.37;99699.91;4973002;28;20575;-57
2021/08/04 01:47:37;;;;;;;0.10;0.10;;;;;;;24.57;43.34;99685.63;4988909;28;20493;-56
2021/08/04 01:50:04;;;;;;;0.10;0.10;;;;;;;24.68;43.25;99698.53;4988838;28;20050;-56
2021/08/04 01:52:41;;;;;;;0.10;0.10;;;;;;;24.72;43.27;99704.38;4990021;28;20054;-53
2021/08/04 01:55:27;;;;;;;0.10;0.10;;;;;;;24.73;43.17;99701.53;4989054;28;20089;-53
2021/08/04 01:58:13;;;;;;;0.10;0.10;;;;;;;24.76;43.06;99700.34;4990179;28;20590;-54
2021/08/04 02:00:58;;;;;;;0.10;0.10;;;;;;;25.03;42.44;99702.47;4975649;28;20476;-54
2021/08/04 02:03:44;;;;;;;0.15;0.15;;;;;;;25.38;41.87;99706.31;4988945;28;20061;-52
2021/08/04 02:06:35;;;;;;;0.15;0.15;;;;;;;25.75;41.08;99714.28;4988935;28;20047;-52
2021/08/04 02:09:27;;;;;;;0.10;0.10;;;;;;;26.09;40.31;99710.22;4990150;28;20146;-52
2021/08/04 02:12:13;;;;;;;0.20;0.20;;;;;;;26.41;39.62;99712.47;4989135;28;20057;-57
2021/08/04 02:15:02;;;;;;;0.10;0.10;;;;;;;26.73;38.84;99711.97;4990088;28;20109;-55
2021/08/04 02:17:54;;;;;;;0.20;0.20;;;;;;;26.97;38.45;99716.16;4990285;28;20142;-57
2021/08/04 02:20:40;;;;;;;0.00;0.00;;;;;;;26.95;38.48;99714.69;4972363;28;20300;-56
2021/08/04 02:23:29;;;;;;;0.10;0.10;;;;;;;26.69;38.70;99713.41;4981273;28;20053;-54
2021/08/04 02:26:16;;;;;;;0.05;0.05;;;;;;;26.62;38.77;99714.34;4982031;28;20086;-56
2021/08/04 02:29:01;;;;;;;0.10;0.10;;;;;;;26.59;39.20;99723.59;4994597;28;20121;-55
2021/08/04 02:31:47;;;;;;;0.15;0.15;;;;;;;26.89;38.53;99716.31;4981557;28;20136;-54
2021/08/04 02:34:33;;;;;;;0.10;0.10;;;;;;;27.03;38.04;99728.78;5009392;28;20046;-56
2021/08/04 02:37:19;;;;;;;0.30;0.30;;;;;;;26.69;38.63;99726.81;5009522;28;20506;-56
2021/08/04 02:40:06;;;;;;;0.10;0.10;;;;;;;26.66;39.10;99740.59;5012400;28;20049;-55
2021/08/04 02:42:52;;;;;;;0.10;0.10;;;;;;;26.58;39.07;99738.00;5013346;28;20502;-57
2021/08/04 02:45:38;;;;;;;0.10;0.10;;;;;;;26.92;38.31;99746.25;4984665;28;20131;-57
2021/08/04 02:48:24;;;;;;;0.10;0.10;;;;;;;27.13;37.51;99725.78;4998161;28;20054;-56
2021/08/04 02:51:11;;;;;;;0.30;0.30;;;;;;;27.77;36.87;99735.38;4998359;28;20089;-57
2021/08/04 02:53:57;;;;;;;0.20;0.20;;;;;;;28.33;35.33;99727.19;4998198;28;20061;-55
2021/08/04 02:56:43;;;;;;;0.20;0.20;;;;;;;28.89;34.55;99736.66;5012706;28;20965;-55
2021/08/04 02:59:29;;;;;;;0.20;0.20;;;;;;;29.28;33.66;99743.97;4998033;28;20052;-56
2021/08/04 03:02:15;;;;;;;0.20;0.20;;;;;;;29.61;33.12;99746.63;5012789;28;20060;-57
2021/08/04 03:05:01;;;;;;;0.10;0.10;;;;;;;29.89;32.77;99747.22;5012591;28;20042;-56
2021/08/04 03:07:46;;;;;;;0.40;0.40;;;;;;;30.17;32.02;99741.50;5012692;28;20045;-54
2021/08/04 03:10:33;;;;;;;0.20;0.20;;;;;;;30.47;31.26;99747.22;4984442;28;20054;-54
2021/08/04 03:13:19;;;;;;;0.20;0.20;;;;;;;30.76;31.05;99757.41;5012435;28;20423;-55
2021/08/04 03:16:05;;;;;;;0.20;0.20;;;;;;;31.03;30.69;99749.19;5012507;28;20089;-53
2021/08/04 03:18:50;;;;;;;0.20;0.20;;;;;;;31.22;30.15;99751.72;5012497;28;20441;-53
2021/08/04 03:21:36;;;;;;;0.20;0.20;;;;;;;31.47;29.88;99765.22;4993639;28;20201;-56
2021/08/04 03:24:22;;;;;;;0.20;0.20;;;;;;;31.64;29.57;99766.34;4992748;28;20055;-55
2021/08/04 03:27:08;;;;;;;0.20;0.20;;;;;;;31.84;29.14;99758.84;4992973;28;20065;-54
2021/08/04 03:29:54;;;;;;;0.20;0.20;;;;;;;31.89;28.69;99764.41;4992841;28;20057;-56
2021/08/04 03:32:40;;;;;;;0.10;0.10;;;;;;;32.05;28.90;99767.59;4992488;28;20057;-55
2021/08/04 03:35:25;;;;;;;0.10;0.10;;;;;;;31.71;29.20;99772.50;4992582;28;20050;-58
2021/08/04 03:38:11;;;;;;;0.15;0.15;;;;;;;31.20;29.87;99779.97;4992682;28;20137;-56
2021/08/04 03:40:57;;;;;;;0.00;0.00;;;;;;;30.80;30.32;99766.72;4992869;28;20060;-55
2021/08/04 03:43:43;;;;;;;0.10;0.10;;;;;;;30.66;30.85;99773.22;4992189;28;20156;-57
2021/08/04 03:46:29;;;;;;;0.52;0.52;;;;;;;30.69;30.61;99767.44;4992321;28;20133;-57
2021/08/04 03:49:15;;;;;;;0.10;0.10;;;;;;;30.51;30.95;99769.16;4992466;28;20054;-56
2021/08/04 03:52:01;;;;;;;0.10;0.10;;;;;;;30.37;31.42;99779.97;4992025;28;20050;-56
2021/08/04 03:54:48;;;;;;;0.10;0.10;;;;;;;30.32;31.38;99787.06;4992233;28;20054;-56
2021/08/04 03:57:34;;;;;;;0.10;0.10;;;;;;;30.23;31.68;99799.13;4977487;28;20061;-54
2021/08/04 04:00:20;;;;;;;0.10;0.10;;;;;;;30.25;31.67;99807.81;4991746;28;20192;-56
2021/08/04 04:03:06;;;;;;;2.17;0.85;;;;;;;30.56;31.13;99799.84;4990923;28;20137;-56
2021/08/04 04:05:52;;;;;;;0.20;0.20;;;;;;;31.26;29.69;99795.28;4992128;28;20073;-56
2021/08/04 04:08:38;;;;;;;0.10;0.10;;;;;;;31.77;29.22;99804.03;4991524;28;20045;-57
2021/08/04 04:11:24;;;;;;;0.10;0.10;;;;;;;31.68;29.42;99808.03;4992044;28;20046;-55
2021/08/04 04:14:09;;;;;;;0.20;0.20;;;;;;;31.75;29.30;99808.81;4991707;28;20050;-57
2021/08/04 04:16:55;;;;;;;0.20;0.20;;;;;;;32.22;28.79;99811.91;4991755;28;20068;-57
2021/08/04 04:19:41;;;;;;;0.47;0.47;;;;;;;32.64;28.17;99813.69;4991231;28;20059;-56
2021/08/04 04:22:27;;;;;;;0.10;0.10;;;;;;;32.54;27.79;99810.66;4991451;28;20062;-56
2021/08/04 04:25:14;;;;;;;0.30;0.30;;;;;;;32.26;28.21;99815.81;4990369;28;20054;-57
2021/08/04 04:28:00;;;;;;;0.10;0.10;;;;;;;32.26;28.65;99815.81;4991512;28;20085;-55
2021/08/04 04:30:46;;;;;;;0.85;0.85;;;;;;;32.20;28.44;99817.50;4991357;28;20085;-56
2021/08/04 04:33:32;;;;;;;0.10;0.10;;;;;;;32.10;28.64;99811.00;4991054;28;20092;-55
2021/08/04 04:36:17;;;;;;;0.25;0.25;;;;;;;32.11;29.03;99826.16;4991156;28;20062;-57
2021/08/04 04:39:03;;;;;;;0.10;0.10;;;;;;;32.86;27.85;99814.84;4991111;28;20420;-55
2021/08/04 04:41:49;;;;;;;0.10;0.10;;;;;;;32.81;27.43;99820.13;4991113;28;20414;-57
2021/08/04 04:44:35;;;;;;;0.20;0.20;;;;;;;32.65;27.87;99828.03;4990995;28;20053;-56
2021/08/04 04:47:21;;;;;;;0.10;0.10;;;;;;;32.35;28.60;99823.38;4991229;28;20104;-58
2021/08/04 04:50:07;;;;;;;0.20;0.20;;;;;;;32.87;27.50;99826.50;4991324;28;20053;-57
2021/08/04 04:52:53;;;;;;;0.30;0.30;;;;;;;33.68;26.36;99824.03;4991003;28;20058;-59
2021/08/04 04:55:39;;;;;;;0.20;0.20;;;;;;;34.41;25.29;99831.66;4990669;28;20054;-58
2021/08/04 04:58:25;;;;;;;0.22;0.22;;;;;;;33.80;26.36;99816.72;4990828;28;20460;-57
2021/08/04 05:01:10;;;;;;;0.20;0.20;;;;;;;33.91;26.17;99824.03;4991224;28;20460;-58
2021/08/04 05:03:56;;;;;;;0.10;0.10;;;;;;;33.52;26.94;99827.41;4990085;28;20065;-58
2021/08/04 05:06:42;;;;;;;0.30;0.30;;;;;;;32.90;27.63;99832.28;4990586;28;20050;-56
2021/08/04 05:09:28;;;;;;;0.30;0.30;;;;;;;33.11;27.06;99819.31;4990678;28;20050;-58
2021/08/04 05:12:14;;;;;;;0.20;0.20;;;;;;;33.41;26.85;99829.03;4990696;28;20057;-57
2021/08/04 05:15:00;;;;;;;0.20;0.20;;;;;;;34.10;26.04;99822.00;4989662;28;20068;-57
2021/08/04 05:17:46;;;;;;;0.20;0.20;;;;;;;34.58;25.11;99818.19;4990312;28;20055;-57
2021/08/04 05:20:32;;;;;;;0.10;0.10;;;;;;;34.87;24.94;99820.69;4991949;28;20149;-57
2021/08/04 05:23:18;;;;;;;0.20;0.20;;;;;;;34.39;25.57;99833.81;4990594;28;20050;-56
2021/08/04 05:25:44;;;;;;;0.20;0.20;;;;;;;34.54;25.31;99834.09;4990261;28;20096;-58
2021/08/04 05:28:10;;;;;;;0.20;0.20;;;;;;;34.86;24.71;99838.03;4990524;28;20061;-57
2021/08/04 05:30:36;;;;;;;0.20;0.20;;;;;;;35.04;24.44;99842.44;4989899;28;20038;-58
2021/08/04 05:33:01;;;;;;;0.20;0.20;;;;;;;35.20;24.37;99843.56;4990432;28;20050;-57
2021/08/04 05:35:27;;;;;;;0.30;0.30;;;;;;;35.24;24.24;99823.00;4990272;28;20100;-56
2021/08/04 05:37:53;;;;;;;0.20;0.20;;;;;;;35.38;24.03;99836.00;4990084;28;20050;-57
2021/08/04 05:40:19;;;;;;;0.20;0.20;;;;;;;35.51;23.82;99837.56;4990067;28;20145;-58
2021/08/04 05:42:45;;;;;;;0.43;0.43;;;;;;;35.52;23.88;99834.63;4990120;28;20050;-58
2021/08/04 05:45:12;;;;;;;0.28;0.28;;;;;;;35.58;23.86;99840.13;4990303;28;20100;-58
2021/08/04 05:47:38;;;;;;;0.20;0.20;;;;;;;35.51;23.79;99829.44;4990022;28;20054;-57
2021/08/04 05:50:04;;;;;;;0.20;0.20;;;;;;;35.69;23.63;99841.97;4990282;28;20053;-57
2021/08/04 05:52:30;;;;;;;0.10;0.10;;;;;;;35.69;23.64;99840.09;4990283;28;20061;-57
2021/08/04 05:54:56;;;;;;;0.30;0.30;;;;;;;35.48;23.67;99843.50;4990017;28;20182;-58
2021/08/04 05:57:22;;;;;;;0.10;0.10;;;;;;;35.51;23.96;99841.13;4989079;28;20109;-57
2021/08/04 05:59:48;;;;;;;0.30;0.30;;;;;;;35.01;24.51;99835.59;4989906;28;20468;-56
2021/08/04 06:02:14;;;;;;;0.20;0.20;;;;;;;35.28;24.01;99835.00;4990088;28;20432;-57
2021/08/04 06:04:40;;;;;;;0.20;0.20;;;;;;;35.50;23.78;99841.38;4989856;28;20043;-57
2021/08/04 06:07:06;;;;;;;0.20;0.20;;;;;;;35.59;23.71;99850.81;4988702;28;20047;-57
2021/08/04 06:09:32;;;;;;;0.13;0.13;;;;;;;35.71;23.55;99846.09;4990308;28;20054;-53
2021/08/04 06:11:58;;;;;;;0.50;0.50;;;;;;;35.83;23.41;99852.25;4990475;28;20655;-56
2021/08/04 06:14:24;;;;;;;0.20;0.20;;;;;;;35.84;23.41;99840.31;4992018;28;20050;-56
2021/08/04 06:16:50;;;;;;;0.10;0.10;;;;;;;35.91;23.20;99849.13;4992807;28;20574;-53
2021/08/04 06:19:23;;;;;;;0.20;0.20;;;;;;;35.94;23.02;99842.38;4994264;28;20042;-54
2021/08/04 06:21:49;;;;;;;0.10;0.10;;;;;;;36.21;22.97;99851.50;4993500;28;20536;-52
2021/08/04 06:24:15;;;;;;;0.10;0.10;;;;;;;36.89;22.13;99852.91;4994142;28;20081;-55
2021/08/04 06:26:41;;;;;;;0.20;0.20;;;;;;;39.98;18.51;99847.94;4992483;28;20582;-55
2021/08/04 06:29:07;;;;;;;0.43;0.43;;;;;;;44.41;14.42;99843.41;4976432;28;20057;-54
2021/08/04 06:31:33;;;;;;;1.67;1.67;;;;;;;47.37;11.51;99844.06;4993756;28;20058;-59
2021/08/04 06:33:59;;;;;;;1.25;1.23;;;;;;;48.87;10.42;99840.84;4992269;28;20046;-54
2021/08/04 06:36:25;;;;;;;0.90;0.90;;;;;;;49.74;9.76;99841.69;4992283;28;20054;-55
2021/08/04 06:38:51;;;;;;;0.80;0.80;;;;;;;50.29;9.26;99852.28;4976323;28;20078;-55
2021/08/04 06:41:17;;;;;;;0.80;0.80;;;;;;;50.83;8.91;99850.84;4992609;28;20053;-54
2021/08/04 06:43:43;;;;;;;0.70;0.70;;;;;;;50.99;8.89;99850.91;4991998;28;20057;-57
2021/08/04 06:46:10;;;;;;;0.60;0.60;;;;;;;50.69;8.73;99853.22;4993408;28;20052;-57
2021/08/04 06:48:36;;;;;;;0.40;0.40;;;;;;;50.67;8.74;99849.97;4992091;28;20160;-57
2021/08/04 06:51:02;;;;;;;0.30;0.30;;;;;;;48.58;10.25;99844.44;4993430;28;20112;-57
2021/08/04 06:53:28;;;;;;;0.20;0.20;;;;;;;44.67;13.33;99844.50;4993783;28;20066;-54
2021/08/04 06:55:54;;;;;;;0.10;0.10;;;;;;;41.46;15.82;99847.81;4993210;28;20137;-54
2021/08/04 06:58:20;;;;;;;0.10;0.10;;;;;;;39.52;18.09;99836.22;4993477;28;20564;-54
2021/08/04 07:00:47;;;;;;;0.10;0.10;;;;;;;38.34;19.23;99843.50;4992828;28;20440;-55
2021/08/04 07:03:13;;;;;;;0.20;0.20;;;;;;;37.57;20.00;99843.28;4993304;28;20395;-55
2021/08/04 07:05:40;;;;;;;0.10;0.10;;;;;;;37.04;20.95;99842.22;4991461;28;20054;-59
2021/08/04 07:08:08;;;;;;;0.13;0.13;;;;;;;36.68;21.36;99840.97;4993012;28;20527;-59
2021/08/04 07:10:34;;;;;;;0.10;0.10;;;;;;;36.44;21.81;99845.81;4992987;28;20046;-56
2021/08/04 07:13:01;;;;;;;0.10;0.10;;;;;;;36.21;22.12;99843.34;4992598;28;20129;-55
2021/08/04 07:15:27;;;;;;;0.30;0.30;;;;;;;35.98;22.37;99836.19;4992986;28;20054;-56
2021/08/04 07:17:53;;;;;;;0.10;0.10;;;;;;;35.76;22.67;99843.47;4991248;28;20046;-57
2021/08/04 07:20:21;;;;;;;0.30;0.30;;;;;;;35.68;22.82;99843.88;4992557;28;20130;-56
2021/08/04 07:22:47;;;;;;;0.20;0.20;;;;;;;35.39;22.71;99801.53;4992411;28;20225;-57
2021/08/04 07:25:14;;;;;;;0.10;0.10;;;;;;;35.58;22.89;99840.97;4991905;28;20460;-56
2021/08/04 07:27:40;;;;;;;0.10;0.10;;;;;;;35.58;22.75;99843.69;4991173;28;20042;-55
2021/08/04 07:30:07;;;;;;;0.10;0.10;;;;;;;35.42;22.90;99828.19;4991346;28;20046;-54
2021/08/04 07:32:34;;;;;;;0.08;0.08;;;;;;;35.31;22.91;99846.22;4992669;28;20050;-54
2021/08/04 07:35:03;;;;;;;0.10;0.10;;;;;;;34.79;23.82;99844.66;4990875;28;20132;-59
2021/08/04 07:37:30;;;;;;;0.10;0.10;;;;;;;34.39;24.18;99831.88;4991129;28;20054;-55
2021/08/04 07:39:56;;;;;;;0.00;0.00;;;;;;;34.17;24.60;99836.31;4974739;28;20508;-55
2021/08/04 07:42:25;;;;;;;0.00;0.00;;;;;;;33.80;24.90;99851.16;4992235;28;20082;-56
2021/08/04 07:44:52;;;;;;;0.10;0.10;;;;;;;33.52;25.32;99846.34;4974853;28;20051;-54
2021/08/04 07:47:18;;;;;;;0.10;0.10;;;;;;;33.45;25.33;99853.75;4990817;28;20074;-54
2021/08/04 07:49:44;;;;;;;0.10;0.10;;;;;;;33.25;25.86;99840.53;4974605;28;20046;-56
2021/08/04 07:52:10;;;;;;;0.10;0.10;;;;;;;33.08;25.94;99833.28;4990965;28;20073;-55
2021/08/04 07:54:38;;;;;;;0.10;0.10;;;;;;;32.85;26.70;99850.25;4992092;28;20046;-57
2021/08/04 07:57:04;;;;;;;0.00;0.00;;;;;;;32.69;26.92;99845.47;4992078;28;20050;-56
2021/08/04 07:59:30;;;;;;;0.03;0.03;;;;;;;32.94;26.54;99843.47;4992214;28;20046;-55
2021/08/04 08:01:56;;;;;;;0.10;0.10;;;;;;;33.25;25.84;99839.69;4990172;28;20108;-53
2021/08/04 08:04:22;;;;;;;0.10;0.10;;;;;;;33.22;25.80;99842.88;4991908;28;20048;-56
2021/08/04 08:06:49;;;;;;;0.10;0.10;;;;;;;33.03;26.43;99842.09;4991849;28;20051;-55
2021/08/04 08:09:21;;;;;;;0.00;0.00;;;;;;;32.79;26.67;99845.72;4992007;28;20551;-56
2021/08/04 08:11:50;;;;;;;0.00;0.00;;;;;;;32.52;27.25;99839.81;4991581;28;20077;-55
2021/08/04 08:14:17;;;;;;;0.20;0.20;;;;;;;32.35;27.06;99838.78;4991803;28;20153;-57
2021/08/04 08:16:43;;;;;;;0.00;0.00;;;;;;;32.19;27.07;99840.22;4991598;28;20046;-55
2021/08/04 08:19:09;;;;;;;0.00;0.00;;;;;;;32.01;27.42;99827.47;4991684;28;20055;-55
2021/08/04 08:21:36;;;;;;;0.10;0.10;;;;;;;32.13;27.34;99840.28;4991351;28;20057;-55
2021/08/04 08:24:03;;;;;;;0.00;0.00;;;;;;;32.12;27.68;99834.03;4991286;28;20138;-54
2021/08/04 08:26:33;;;;;;;0.00;0.00;;;;;;;32.10;27.63;99841.53;4991663;28;20050;-54
2021/08/04 08:28:59;;;;;;;0.00;0.00;;;;;;;32.01;27.75;99838.28;4989944;28;20043;-55
2021/08/04 08:31:25;;;;;;;0.10;0.10;;;;;;;31.95;27.50;99849.13;4991484;28;20061;-51
2021/08/04 08:33:51;;;;;;;1.35;1.08;;;;;;;31.96;27.73;99848.09;4991090;28;20046;-56
2021/08/04 08:36:17;;;;;;;0.10;0.10;;;;;;;31.87;27.66;99842.13;4991080;28;20050;-53
2021/08/04 08:38:43;;;;;;;0.10;0.10;;;;;;;31.84;27.82;99836.38;4989965;28;20053;-56
2021/08/04 08:41:09;;;;;;;0.10;0.10;;;;;;;31.73;27.93;99835.22;4991260;28;20460;-55
2021/08/04 08:43:35;;;;;;;0.20;0.20;;;;;;;31.67;28.10;99836.13;4991165;28;20038;-56
2021/08/04 08:46:01;;;;;;;0.00;0.00;;;;;;;31.62;27.97;99830.53;4991035;28;20058;-55
2021/08/04 08:48:27;;;;;;;0.10;0.10;;;;;;;31.69;27.77;99839.41;4991351;28;20121;-56
2021/08/04 08:50:54;;;;;;;0.05;0.05;;;;;;;31.88;27.67;99838.41;4989465;28;20053;-56
2021/08/04 08:53:21;;;;;;;0.10;0.10;;;;;;;31.94;27.63;99832.09;4991105;28;20428;-55
2021/08/04 08:55:47;;;;;;;0.10;0.10;;;;;;;32.04;27.59;99847.84;4990851;28;20121;-55
2021/08/04 08:58:14;;;;;;;0.10;0.10;;;;;;;31.96;27.55;99843.53;4990863;28;20433;-56
2021/08/04 09:00:40;;;;;;;0.00;0.00;;;;;;;31.76;27.97;99829.38;4989449;28;20054;-55
2021/08/04 09:03:06;;;;;;;0.10;0.10;;;;;;;31.72;28.27;99844.38;4990521;28;20042;-55
2021/08/04 09:05:57;;;;;;;0.10;0.10;;;;;;;31.62;28.09;99843.19;4990841;28;20330;-55
2021/08/04 09:08:23;;;;;;;0.00;0.00;;;;;;;31.51;28.35;99842.06;4981662;28;20058;-55
2021/08/04 09:10:49;;;;;;;0.00;0.00;;;;;;;31.45;28.01;99848.28;4990542;28;20073;-54
2021/08/04 09:13:15;;;;;;;0.00;0.00;;;;;;;31.35;28.59;99842.53;4990716;28;20084;-53
2021/08/04 09:15:42;;;;;;;0.10;0.10;;;;;;;31.32;28.65;99851.06;4990553;28;20057;-58
2021/08/04 09:18:15;;;;;;;0.00;0.00;;;;;;;31.27;28.42;99846.34;4990635;28;20054;-57
2021/08/04 09:20:44;;;;;;;0.10;0.10;;;;;;;31.23;28.55;99839.72;4990226;28;20149;-55
2021/08/04 09:23:13;;;;;;;0.10;0.10;;;;;;;31.15;28.62;99839.19;4989062;28;20050;-54
2021/08/04 09:25:39;;;;;;;0.10;0.10;;;;;;;31.13;28.82;99843.94;4989079;28;20078;-57
2021/08/04 09:28:04;;;;;;;0.57;0.57;;;;;;;31.11;28.58;99844.19;4990365;28;20068;-56
2021/08/04 09:30:32;;;;;;;0.10;0.10;;;;;;;31.15;28.72;99833.78;4973163;28;20046;-56
2021/08/04 09:33:21;;;;;;;0.10;0.10;;;;;;;31.26;28.24;99833.91;4990192;28;20050;-57
2021/08/04 09:35:48;;;;;;;0.00;0.00;;;;;;;31.25;28.57;99823.34;4990138;28;20042;-58
2021/08/04 09:38:14;;;;;;;0.00;0.00;;;;;;;31.13;28.83;99834.00;4988962;28;20054;-53
2021/08/04 09:40:40;;;;;;;0.03;0.03;;;;;;;30.98;28.86;99823.50;4990185;28;20583;-52
2021/08/04 09:43:06;;;;;;;0.10;0.10;;;;;;;30.83;28.95;99805.91;4972910;28;20428;-56
2021/08/04 09:45:48;;;;;;;0.00;0.00;;;;;;;30.86;29.04;99827.88;4990229;28;20050;-54
2021/08/04 09:48:16;;;;;;;0.00;0.00;;;;;;;30.80;29.01;99826.06;4989971;28;20493;-54
2021/08/04 09:51:02;;;;;;;0.00;0.00;;;;;;;30.74;29.17;99805.34;4990183;28;20054;-56
2021/08/04 09:53:28;;;;;;;0.10;0.10;;;;;;;30.89;28.98;99823.94;4989896;28;20081;-52
2021/08/04 09:56:09;;;;;;;0.00;0.00;;;;;;;30.95;29.11;99832.03;4989932;28;20050;-56
2021/08/04 09:58:36;;;;;;;0.00;0.00;;;;;;;31.04;29.09;99831.78;4990188;28;20074;-54
2021/08/04 10:01:03;;;;;;;0.00;0.00;;;;;;;31.13;28.77;99833.16;4989583;28;20054;-55
2021/08/04 10:03:30;;;;;;;0.00;0.00;;;;;;;31.20;28.67;99828.53;4990150;28;20072;-53
2021/08/04 10:05:55;;;;;;;0.10;0.10;;;;;;;31.23;28.25;99825.41;4988309;28;20050;-55
2021/08/04 10:08:22;;;;;;;0.10;0.10;;;;;;;31.22;28.42;99827.28;4989991;28;20054;-54
2021/08/04 10:10:57;;;;;;;0.10;0.10;;;;;;;31.22;28.64;99827.28;4989789;28;20061;-53
2021/08/04 10:13:25;;;;;;;0.00;0.00;;;;;;;31.27;28.64;99829.34;5004873;28;20046;-55
2021/08/04 10:15:54;;;;;;;0.00;0.00;;;;;;;31.29;28.20;99824.53;4989559;28;20516;-53
2021/08/04 10:18:22;;;;;;;0.10;0.10;;;;;;;31.28;28.24;99817.50;4989747;28;20050;-55
2021/08/04 10:20:52;;;;;;;0.00;0.00;;;;;;;31.30;28.05;99828.91;4989359;28;20073;-53
2021/08/04 10:23:21;;;;;;;0.10;0.10;;;;;;;31.27;28.15;99823.94;4988440;28;20430;-54
2021/08/04 10:25:47;;;;;;;0.10;0.10;;;;;;;31.24;28.36;99825.22;4988313;28;20398;-54
2021/08/04 10:28:14;;;;;;;0.20;0.20;;;;;;;31.15;28.72;99823.00;4989612;28;20085;-55
2021/08/04 10:30:42;;;;;;;0.17;0.17;;;;;;;31.02;28.55;99823.91;4989777;28;20082;-54
2021/08/04 10:33:10;;;;;;;0.00;0.00;;;;;;;30.97;29.00;99819.16;4988226;28;20056;-50
2021/08/04 10:35:36;;;;;;;0.00;0.00;;;;;;;30.90;28.88;99812.94;4989596;28;20050;-53
2021/08/04 10:38:11;;;;;;;0.10;0.10;;;;;;;30.84;29.21;99807.56;4989503;28;20086;-53
2021/08/04 10:40:38;;;;;;;0.10;0.10;;;;;;;30.83;29.29;99816.69;4989614;28;20054;-52
2021/08/04 10:43:04;;;;;;;0.10;0.10;;;;;;;30.79;29.32;99816.31;4989541;28;20061;-54
2021/08/04 10:45:30;;;;;;;0.00;0.00;;;;;;;30.74;29.27;99810.75;4989646;28;20041;-55
2021/08/04 10:48:15;;;;;;;0.10;0.10;;;;;;;30.74;29.25;99812.59;5004537;28;20413;-54
2021/08/04 10:51:16;;;;;;;0.05;0.05;;;;;;;30.70;29.57;99817.59;4988535;28;20521;-55
2021/08/04 10:54:00;;;;;;;0.00;0.00;;;;;;;30.60;29.74;99811.84;4989794;28;20054;-54
2021/08/04 10:56:32;;;;;;;0.20;0.20;;;;;;;30.66;29.80;99819.06;4989489;28;20050;-54
2021/08/04 10:59:08;;;;;;;0.10;0.10;;;;;;;30.63;29.83;99826.78;4989164;28;20137;-54
2021/08/04 11:01:34;;;;;;;0.03;0.03;;;;;;;30.57;29.93;99817.66;4991282;28;20050;-54
2021/08/04 11:04:01;;;;;;;0.00;0.00;;;;;;;30.49;30.33;99820.63;4992782;28;20058;-54
2021/08/04 11:06:27;;;;;;;0.43;0.43;;;;;;;30.50;30.15;99826.84;4992890;28;20053;-54
2021/08/04 11:09:14;;;;;;;0.10;0.10;;;;;;;30.49;30.31;99826.00;4992816;28;20421;-51
2021/08/04 11:11:54;;;;;;;0.28;0.28;;;;;;;30.47;30.31;99812.72;4992732;28;20047;-53
2021/08/04 11:14:58;;;;;;;0.00;0.00;;;;;;;30.54;30.20;99822.66;4992865;28;20061;-54
2021/08/04 11:17:29;;;;;;;0.28;0.28;;;;;;;30.56;30.10;99815.19;4992640;28;20046;-55
2021/08/04 11:20:04;;;;;;;0.10;0.10;;;;;;;30.59;30.28;99826.38;4992439;28;20062;-54
2021/08/04 11:22:34;;;;;;;0.10;0.10;;;;;;;30.62;30.21;99822.44;4992570;28;20050;-53
2021/08/04 11:25:22;;;;;;;0.00;0.00;;;;;;;30.65;30.19;99825.53;4992515;28;20117;-53
2021/08/04 11:27:47;;;;;;;0.00;0.00;;;;;;;30.70;29.99;99828.38;4992786;28;20050;-52
2021/08/04 11:30:27;;;;;;;0.13;0.13;;;;;;;30.71;30.08;99821.97;4992340;28;20046;-55
2021/08/04 11:33:18;;;;;;;0.00;0.00;;;;;;;30.79;30.00;99832.47;4992064;28;20050;-54
2021/08/04 11:35:58;;;;;;;0.10;0.10;;;;;;;30.82;29.95;99824.00;4992374;28;20112;-54
2021/08/04 11:39:02;;;;;;;0.10;0.10;;;;;;;30.85;29.82;99820.84;4992486;28;20073;-52
2021/08/04 11:41:39;;;;;;;0.10;0.10;;;;;;;30.92;29.73;99828.91;4992291;28;20057;-52
2021/08/04 11:44:13;;;;;;;0.00;0.00;;;;;;;30.92;29.52;99820.81;4992251;28;20416;-53
2021/08/04 11:47:18;;;;;;;0.10;0.10;;;;;;;30.96;29.43;99833.66;4992267;28;20125;-52
2021/08/04 11:49:49;;;;;;;0.10;0.10;;;;;;;30.89;29.63;99815.88;4932010;29;20158;-55
2021/08/04 11:52:16;;;;;;;0.00;0.00;;;;;;;31.00;29.62;99831.38;4931237;29;20052;-58
2021/08/04 11:54:43;;;;;;;0.00;0.00;;;;;;;31.03;29.36;99827.41;4962727;28;20109;-55
2021/08/04 11:57:14;;;;;;;0.10;0.10;;;;;;;30.79;29.42;99793.94;5006865;28;20047;-56
2021/08/04 11:59:53;;;;;;;0.00;0.00;;;;;;;30.89;29.68;99827.44;4991953;28;20058;-55
2021/08/04 12:02:21;;;;;;;;;;;;;;;30.72;29.93;99825.50;4992391;28;20061;-53
2021/08/04 12:04:51;;;;;;;0.00;0.00;;;;;;;30.49;30.04;99836.78;4990495;28;19953;-56
2021/08/04 12:07:18;;;;;;;0.00;0.00;;;;;;;30.40;30.28;99848.81;4991677;28;20078;-52